This is the latest recevied weather packets stored in our database for station/object OK1FET-5. If no packets are shown the sender has not sent any weather packets the latest 1 day(s).
| Time | Temp. | Humidity | Pressure | Rain* | Wind** | Luminosity | Snow |
|---|---|---|---|---|---|---|---|
| 1777937905 | 16.67° C | 51% | 1011.5 hPa | - | 1.34 m/s, 123° | - | - |
| 1777937611 | 16.11° C | 49% | 1011.6 hPa | - | 0.89 m/s, 186° | - | - |
| 1777937610 | 16.11° C | 49% | 1011.6 hPa | - | 0.89 m/s, 186° | - | - |
| 1777937316 | 16.11° C | 49% | 1011.7 hPa | - | 0.45 m/s, 222° | - | - |
| 1777937021 | 16.11° C | 49% | 1011.7 hPa | - | 1.34 m/s, 207° | - | - |
| 1777936727 | 16.67° C | 50% | 1011.9 hPa | - | 1.34 m/s, 183° | - | - |
| 1777936432 | 16.11° C | 51% | 1012 hPa | - | 0.89 m/s, 186° | - | - |
| 1777936138 | 16.11° C | 51% | 1012.1 hPa | - | 1.79 m/s, 192° | - | - |
| 1777936138 | 16.11° C | 51% | 1012.1 hPa | - | 1.79 m/s, 192° | - | - |
| 1777935843 | 16.11° C | 52% | 1012.2 hPa | - | 2.24 m/s, 195° | - | - |
| 1777935843 | 16.11° C | 52% | 1012.2 hPa | - | 2.24 m/s, 195° | - | - |
| 1777935549 | 16.11° C | 53% | 1012.2 hPa | - | 2.68 m/s, 183° | - | - |
| 1777935549 | 16.11° C | 53% | 1012.2 hPa | - | 2.68 m/s, 183° | - | - |
| 1777935254 | 15.56° C | 54% | 1012.3 hPa | - | 3.58 m/s, 183° | - | - |
| 1777934960 | 16.11° C | 50% | 1012.3 hPa | - | 2.68 m/s, 186° | - | - |
| 1777934665 | 16.11° C | 47% | 1012.2 hPa | - | 1.79 m/s, 189° | - | - |
| 1777934370 | 16.67° C | 46% | 1012.1 hPa | - | 0.89 m/s, 177° | - | - |
| 1777934076 | 17.22° C | 45% | 1012 hPa | - | 0.89 m/s, 183° | - | - |
| 1777933781 | 17.22° C | 45% | 1011.9 hPa | - | 0.45 m/s, 140° | - | - |
| 1777933487 | 17.22° C | 44% | 1011.8 hPa | - | 0.45 m/s, 240° | - | - |
* Rain since midnight (hover to see other rain measurements)
** Current wind speed in m/s (hover to see current wind gust speed)